sensor_id;sensor_type;location;lat;lon;timestamp;P1;durP1;ratioP1;P2;durP2;ratioP2
2712;SDS011;1366;47.988;7.856;2022-12-13T05:02:29;26.97;;;15.70;;
2712;SDS011;1366;47.988;7.856;2022-12-13T05:04:56;25.00;;;15.30;;
2712;SDS011;1366;47.988;7.856;2022-12-13T05:07:22;26.10;;;15.80;;
2712;SDS011;1366;47.988;7.856;2022-12-13T05:09:48;24.60;;;14.13;;
2712;SDS011;1366;47.988;7.856;2022-12-13T05:12:14;28.37;;;16.07;;
2712;SDS011;1366;47.988;7.856;2022-12-13T05:14:40;25.37;;;15.07;;
2712;SDS011;1366;47.988;7.856;2022-12-13T05:17:06;25.53;;;15.90;;
2712;SDS011;1366;47.988;7.856;2022-12-13T05:19:32;23.50;;;14.57;;
2712;SDS011;1366;47.988;7.856;2022-12-13T05:21:59;22.00;;;14.90;;
2712;SDS011;1366;47.988;7.856;2022-12-13T05:24:25;22.10;;;14.17;;
2712;SDS011;1366;47.988;7.856;2022-12-13T05:26:51;28.70;;;15.80;;
2712;SDS011;1366;47.988;7.856;2022-12-13T05:29:17;24.07;;;15.23;;
2712;SDS011;1366;47.988;7.856;2022-12-13T05:31:43;23.87;;;14.37;;
2712;SDS011;1366;47.988;7.856;2022-12-13T05:34:09;27.10;;;14.60;;
2712;SDS011;1366;47.988;7.856;2022-12-13T05:36:35;22.10;;;15.17;;
2712;SDS011;1366;47.988;7.856;2022-12-13T05:39:02;24.30;;;15.47;;
2712;SDS011;1366;47.988;7.856;2022-12-13T05:41:28;28.90;;;15.70;;
2712;SDS011;1366;47.988;7.856;2022-12-13T05:43:56;24.97;;;16.10;;
2712;SDS011;1366;47.988;7.856;2022-12-13T05:46:22;28.40;;;14.83;;
2712;SDS011;1366;47.988;7.856;2022-12-13T05:48:48;28.97;;;15.27;;
2712;SDS011;1366;47.988;7.856;2022-12-13T05:51:14;23.70;;;13.97;;
2712;SDS011;1366;47.988;7.856;2022-12-13T05:53:40;20.10;;;14.20;;
2712;SDS011;1366;47.988;7.856;2022-12-13T05:56:07;20.90;;;13.80;;
2712;SDS011;1366;47.988;7.856;2022-12-13T05:58:33;24.77;;;14.57;;
2712;SDS011;1366;47.988;7.856;2022-12-13T06:01:03;26.23;;;14.00;;
2712;SDS011;1366;47.988;7.856;2022-12-13T06:03:30;24.40;;;15.73;;
2712;SDS011;1366;47.988;7.856;2022-12-13T06:05:59;24.30;;;14.73;;
2712;SDS011;1366;47.988;7.856;2022-12-13T06:08:25;26.13;;;13.70;;
2712;SDS011;1366;47.988;7.856;2022-12-13T06:10:55;24.50;;;14.20;;
2712;SDS011;1366;47.988;7.856;2022-12-13T06:13:21;26.40;;;15.53;;
2712;SDS011;1366;47.988;7.856;2022-12-13T06:15:47;26.73;;;16.43;;
2712;SDS011;1366;47.988;7.856;2022-12-13T06:18:13;26.50;;;14.73;;
2712;SDS011;1366;47.988;7.856;2022-12-13T06:20:39;28.07;;;16.73;;
2712;SDS011;1366;47.988;7.856;2022-12-13T06:23:05;24.80;;;15.57;;
2712;SDS011;1366;47.988;7.856;2022-12-13T06:25:31;31.17;;;16.87;;
2712;SDS011;1366;47.988;7.856;2022-12-13T06:27:58;24.90;;;14.23;;
2712;SDS011;1366;47.988;7.856;2022-12-13T06:30:24;28.60;;;16.20;;
2712;SDS011;1366;47.988;7.856;2022-12-13T06:32:50;22.60;;;14.53;;
2712;SDS011;1366;47.988;7.856;2022-12-13T06:35:16;25.33;;;15.80;;
2712;SDS011;1366;47.988;7.856;2022-12-13T06:37:42;29.13;;;16.50;;
2712;SDS011;1366;47.988;7.856;2022-12-13T06:40:08;25.60;;;14.97;;
2712;SDS011;1366;47.988;7.856;2022-12-13T06:42:34;21.60;;;14.53;;
2712;SDS011;1366;47.988;7.856;2022-12-13T06:45:00;28.43;;;16.97;;
2712;SDS011;1366;47.988;7.856;2022-12-13T06:47:26;30.83;;;17.00;;
2712;SDS011;1366;47.988;7.856;2022-12-13T06:49:52;26.63;;;15.00;;
2712;SDS011;1366;47.988;7.856;2022-12-13T06:52:18;27.60;;;15.80;;
2712;SDS011;1366;47.988;7.856;2022-12-13T06:54:45;27.00;;;16.07;;
2712;SDS011;1366;47.988;7.856;2022-12-13T06:57:11;28.43;;;16.67;;
2712;SDS011;1366;47.988;7.856;2022-12-13T06:59:37;25.50;;;16.17;;
2712;SDS011;1366;47.988;7.856;2022-12-13T07:02:03;27.70;;;16.30;;
2712;SDS011;1366;47.988;7.856;2022-12-13T07:04:30;29.00;;;17.23;;
2712;SDS011;1366;47.988;7.856;2022-12-13T07:06:56;27.63;;;16.77;;
2712;SDS011;1366;47.988;7.856;2022-12-13T07:09:22;29.30;;;17.77;;
2712;SDS011;1366;47.988;7.856;2022-12-13T07:11:48;29.90;;;16.03;;
2712;SDS011;1366;47.988;7.856;2022-12-13T07:14:14;27.37;;;17.20;;
2712;SDS011;1366;47.988;7.856;2022-12-13T07:16:40;25.50;;;16.90;;
2712;SDS011;1366;47.988;7.856;2022-12-13T07:19:06;28.13;;;15.80;;
2712;SDS011;1366;47.988;7.856;2022-12-13T07:21:32;28.00;;;16.70;;
2712;SDS011;1366;47.988;7.856;2022-12-13T07:24:00;29.50;;;16.80;;
2712;SDS011;1366;47.988;7.856;2022-12-13T07:26:26;27.90;;;16.27;;
2712;SDS011;1366;47.988;7.856;2022-12-13T07:28:52;27.40;;;17.30;;
2712;SDS011;1366;47.988;7.856;2022-12-13T07:31:18;29.77;;;17.10;;
2712;SDS011;1366;47.988;7.856;2022-12-13T07:33:44;31.27;;;16.63;;
2712;SDS011;1366;47.988;7.856;2022-12-13T07:36:11;31.03;;;19.13;;
2712;SDS011;1366;47.988;7.856;2022-12-13T07:38:38;32.63;;;17.03;;
2712;SDS011;1366;47.988;7.856;2022-12-13T07:41:04;29.87;;;18.20;;
2712;SDS011;1366;47.988;7.856;2022-12-13T07:43:31;28.13;;;17.47;;
2712;SDS011;1366;47.988;7.856;2022-12-13T07:46:00;29.03;;;17.13;;
2712;SDS011;1366;47.988;7.856;2022-12-13T07:48:27;32.30;;;19.10;;
2712;SDS011;1366;47.988;7.856;2022-12-13T07:50:53;30.87;;;17.00;;
2712;SDS011;1366;47.988;7.856;2022-12-13T07:53:19;35.70;;;18.80;;
2712;SDS011;1366;47.988;7.856;2022-12-13T07:55:45;25.00;;;16.90;;
2712;SDS011;1366;47.988;7.856;2022-12-13T07:58:12;26.97;;;17.13;;
2712;SDS011;1366;47.988;7.856;2022-12-13T08:00:39;30.97;;;18.47;;
2712;SDS011;1366;47.988;7.856;2022-12-13T08:03:06;28.90;;;17.20;;
2712;SDS011;1366;47.988;7.856;2022-12-13T08:05:32;31.60;;;16.57;;
2712;SDS011;1366;47.988;7.856;2022-12-13T08:07:59;27.70;;;16.90;;
2712;SDS011;1366;47.988;7.856;2022-12-13T08:10:25;30.53;;;18.20;;
2712;SDS011;1366;47.988;7.856;2022-12-13T08:12:51;29.60;;;17.60;;
2712;SDS011;1366;47.988;7.856;2022-12-13T08:15:18;27.87;;;17.00;;
2712;SDS011;1366;47.988;7.856;2022-12-13T08:17:45;28.20;;;16.70;;
2712;SDS011;1366;47.988;7.856;2022-12-13T08:20:11;34.63;;;17.37;;
2712;SDS011;1366;47.988;7.856;2022-12-13T08:22:37;28.47;;;17.60;;
2712;SDS011;1366;47.988;7.856;2022-12-13T08:25:04;31.77;;;17.97;;
2712;SDS011;1366;47.988;7.856;2022-12-13T08:27:30;30.73;;;16.97;;
2712;SDS011;1366;47.988;7.856;2022-12-13T08:29:56;31.87;;;17.17;;
2712;SDS011;1366;47.988;7.856;2022-12-13T08:32:23;27.43;;;16.80;;
2712;SDS011;1366;47.988;7.856;2022-12-13T08:34:49;29.90;;;16.17;;
2712;SDS011;1366;47.988;7.856;2022-12-13T08:37:15;31.03;;;17.97;;
2712;SDS011;1366;47.988;7.856;2022-12-13T08:39:41;27.77;;;16.57;;
2712;SDS011;1366;47.988;7.856;2022-12-13T08:42:15;27.33;;;17.07;;
2712;SDS011;1366;47.988;7.856;2022-12-13T08:44:41;34.13;;;16.97;;
2712;SDS011;1366;47.988;7.856;2022-12-13T08:47:07;28.27;;;16.20;;
2712;SDS011;1366;47.988;7.856;2022-12-13T08:49:34;32.83;;;17.40;;
2712;SDS011;1366;47.988;7.856;2022-12-13T08:52:00;27.30;;;17.47;;
2712;SDS011;1366;47.988;7.856;2022-12-13T08:54:26;32.57;;;16.23;;
2712;SDS011;1366;47.988;7.856;2022-12-13T08:56:52;28.73;;;16.20;;
2712;SDS011;1366;47.988;7.856;2022-12-13T08:59:18;26.27;;;17.00;;
2712;SDS011;1366;47.988;7.856;2022-12-13T09:01:44;24.90;;;15.93;;
2712;SDS011;1366;47.988;7.856;2022-12-13T09:04:10;26.30;;;16.27;;
2712;SDS011;1366;47.988;7.856;2022-12-13T09:06:36;23.00;;;15.17;;
2712;SDS011;1366;47.988;7.856;2022-12-13T09:09:02;27.07;;;15.70;;
2712;SDS011;1366;47.988;7.856;2022-12-13T09:11:28;27.37;;;16.53;;
2712;SDS011;1366;47.988;7.856;2022-12-13T09:13:54;26.80;;;16.13;;
2712;SDS011;1366;47.988;7.856;2022-12-13T09:16:21;23.30;;;16.57;;
2712;SDS011;1366;47.988;7.856;2022-12-13T09:18:47;27.23;;;17.57;;
2712;SDS011;1366;47.988;7.856;2022-12-13T09:21:14;25.77;;;16.37;;
2712;SDS011;1366;47.988;7.856;2022-12-13T09:23:40;31.23;;;18.83;;
2712;SDS011;1366;47.988;7.856;2022-12-13T09:26:07;29.73;;;18.57;;
2712;SDS011;1366;47.988;7.856;2022-12-13T09:28:34;30.37;;;17.10;;
2712;SDS011;1366;47.988;7.856;2022-12-13T09:31:05;29.93;;;18.20;;
2712;SDS011;1366;47.988;7.856;2022-12-13T09:33:31;25.17;;;17.93;;
2712;SDS011;1366;47.988;7.856;2022-12-13T09:35:57;38.57;;;20.33;;
2712;SDS011;1366;47.988;7.856;2022-12-13T09:38:23;29.80;;;18.20;;
2712;SDS011;1366;47.988;7.856;2022-12-13T09:40:50;28.93;;;17.70;;
2712;SDS011;1366;47.988;7.856;2022-12-13T09:43:21;25.20;;;16.77;;
2712;SDS011;1366;47.988;7.856;2022-12-13T09:45:49;26.27;;;18.03;;
2712;SDS011;1366;47.988;7.856;2022-12-13T09:48:19;28.37;;;17.10;;
2712;SDS011;1366;47.988;7.856;2022-12-13T09:50:45;27.63;;;17.47;;
2712;SDS011;1366;47.988;7.856;2022-12-13T09:53:13;29.30;;;17.10;;
2712;SDS011;1366;47.988;7.856;2022-12-13T09:55:41;27.50;;;18.37;;
2712;SDS011;1366;47.988;7.856;2022-12-13T09:58:10;27.97;;;17.27;;
2712;SDS011;1366;47.988;7.856;2022-12-13T10:00:37;26.70;;;16.10;;
2712;SDS011;1366;47.988;7.856;2022-12-13T10:03:03;24.80;;;16.83;;
2712;SDS011;1366;47.988;7.856;2022-12-13T10:08:00;33.33;;;20.50;;
2712;SDS011;1366;47.988;7.856;2022-12-13T10:10:29;29.57;;;18.97;;
2712;SDS011;1366;47.988;7.856;2022-12-13T10:13:03;33.37;;;19.63;;
2712;SDS011;1366;47.988;7.856;2022-12-13T10:15:33;33.77;;;21.17;;
2712;SDS011;1366;47.988;7.856;2022-12-13T10:17:59;28.70;;;19.00;;
2712;SDS011;1366;47.988;7.856;2022-12-13T10:20:27;33.83;;;22.30;;
2712;SDS011;1366;47.988;7.856;2022-12-13T10:22:54;26.60;;;17.40;;
2712;SDS011;1366;47.988;7.856;2022-12-13T10:28:05;26.33;;;16.20;;
2712;SDS011;1366;47.988;7.856;2022-12-13T10:30:37;28.53;;;16.70;;
2712;SDS011;1366;47.988;7.856;2022-12-13T10:33:04;26.27;;;16.30;;
2712;SDS011;1366;47.988;7.856;2022-12-13T10:35:32;24.00;;;16.27;;
2712;SDS011;1366;47.988;7.856;2022-12-13T10:40:38;29.33;;;16.73;;
2712;SDS011;1366;47.988;7.856;2022-12-13T10:45:31;24.07;;;15.87;;
2712;SDS011;1366;47.988;7.856;2022-12-13T10:47:57;28.87;;;17.80;;
2712;SDS011;1366;47.988;7.856;2022-12-13T10:50:24;30.50;;;18.03;;
2712;SDS011;1366;47.988;7.856;2022-12-13T10:52:51;31.37;;;18.33;;
2712;SDS011;1366;47.988;7.856;2022-12-13T10:57:53;31.30;;;17.83;;
2712;SDS011;1366;47.988;7.856;2022-12-13T11:03:04;32.67;;;18.47;;
2712;SDS011;1366;47.988;7.856;2022-12-13T11:05:32;29.10;;;17.97;;
2712;SDS011;1366;47.988;7.856;2022-12-13T11:08:10;27.47;;;15.90;;
2712;SDS011;1366;47.988;7.856;2022-12-13T11:10:37;25.80;;;17.70;;
2712;SDS011;1366;47.988;7.856;2022-12-13T11:13:05;28.03;;;17.80;;
2712;SDS011;1366;47.988;7.856;2022-12-13T11:15:32;24.53;;;17.23;;
2712;SDS011;1366;47.988;7.856;2022-12-13T11:18:03;29.27;;;18.20;;
2712;SDS011;1366;47.988;7.856;2022-12-13T11:20:34;29.30;;;17.47;;
2712;SDS011;1366;47.988;7.856;2022-12-13T11:23:04;29.20;;;16.53;;
2712;SDS011;1366;47.988;7.856;2022-12-13T11:25:40;25.73;;;17.00;;
2712;SDS011;1366;47.988;7.856;2022-12-13T11:36:07;26.33;;;17.00;;
2712;SDS011;1366;47.988;7.856;2022-12-13T11:41:18;22.70;;;15.20;;
2712;SDS011;1366;47.988;7.856;2022-12-13T11:46:17;25.60;;;16.80;;
2712;SDS011;1366;47.988;7.856;2022-12-13T11:48:46;29.10;;;16.73;;
2712;SDS011;1366;47.988;7.856;2022-12-13T11:51:17;23.07;;;14.97;;
2712;SDS011;1366;47.988;7.856;2022-12-13T11:58:58;28.70;;;17.27;;
2712;SDS011;1366;47.988;7.856;2022-12-13T12:01:42;30.43;;;17.43;;
2712;SDS011;1366;47.988;7.856;2022-12-13T12:04:13;27.67;;;17.60;;
2712;SDS011;1366;47.988;7.856;2022-12-13T12:06:53;27.97;;;18.20;;
2712;SDS011;1366;47.988;7.856;2022-12-13T12:09:22;23.13;;;17.17;;
2712;SDS011;1366;47.988;7.856;2022-12-13T12:14:21;30.80;;;18.10;;
2712;SDS011;1366;47.988;7.856;2022-12-13T12:16:53;31.13;;;18.87;;
2712;SDS011;1366;47.988;7.856;2022-12-13T12:19:21;30.43;;;18.20;;
2712;SDS011;1366;47.988;7.856;2022-12-13T12:24:35;33.57;;;20.00;;
2712;SDS011;1366;47.988;7.856;2022-12-13T12:27:22;25.63;;;17.17;;
2712;SDS011;1366;47.988;7.856;2022-12-13T12:29:59;32.53;;;19.37;;
2712;SDS011;1366;47.988;7.856;2022-12-13T12:32:30;26.90;;;16.70;;
2712;SDS011;1366;47.988;7.856;2022-12-13T12:42:49;29.40;;;18.60;;
2712;SDS011;1366;47.988;7.856;2022-12-13T12:50:36;32.43;;;18.70;;
2712;SDS011;1366;47.988;7.856;2022-12-13T13:03:23;27.10;;;18.03;;
2712;SDS011;1366;47.988;7.856;2022-12-13T13:05:51;26.87;;;16.60;;
2712;SDS011;1366;47.988;7.856;2022-12-13T13:08:19;28.90;;;17.73;;
2712;SDS011;1366;47.988;7.856;2022-12-13T13:10:46;30.93;;;18.63;;
2712;SDS011;1366;47.988;7.856;2022-12-13T13:13:31;31.13;;;18.50;;
2712;SDS011;1366;47.988;7.856;2022-12-13T13:15:58;25.53;;;17.40;;
2712;SDS011;1366;47.988;7.856;2022-12-13T13:26:27;29.60;;;17.60;;
2712;SDS011;1366;47.988;7.856;2022-12-13T13:28:53;35.30;;;19.93;;
2712;SDS011;1366;47.988;7.856;2022-12-13T13:31:21;23.53;;;16.67;;
2712;SDS011;1366;47.988;7.856;2022-12-13T13:33:48;35.30;;;20.53;;
2712;SDS011;1366;47.988;7.856;2022-12-13T13:38:59;25.90;;;15.97;;
2712;SDS011;1366;47.988;7.856;2022-12-13T13:41:38;23.43;;;16.03;;
2712;SDS011;1366;47.988;7.856;2022-12-13T13:52:24;26.90;;;17.73;;
2712;SDS011;1366;47.988;7.856;2022-12-13T13:57:31;30.77;;;18.17;;
2712;SDS011;1366;47.988;7.856;2022-12-13T14:00:10;26.10;;;16.33;;
2712;SDS011;1366;47.988;7.856;2022-12-13T14:07:56;26.27;;;16.53;;
2712;SDS011;1366;47.988;7.856;2022-12-13T14:31:11;26.07;;;16.17;;
2712;SDS011;1366;47.988;7.856;2022-12-13T14:33:37;24.30;;;16.10;;
2712;SDS011;1366;47.988;7.856;2022-12-13T14:36:08;26.87;;;17.53;;
2712;SDS011;1366;47.988;7.856;2022-12-13T14:38:38;22.10;;;15.30;;
2712;SDS011;1366;47.988;7.856;2022-12-13T14:41:04;24.13;;;17.70;;
2712;SDS011;1366;47.988;7.856;2022-12-13T14:43:32;22.80;;;16.43;;
2712;SDS011;1366;47.988;7.856;2022-12-13T14:46:00;28.60;;;16.63;;
2712;SDS011;1366;47.988;7.856;2022-12-13T14:48:49;28.20;;;14.93;;
2712;SDS011;1366;47.988;7.856;2022-12-13T14:51:33;23.90;;;16.83;;
2712;SDS011;1366;47.988;7.856;2022-12-13T14:54:01;23.70;;;15.90;;
2712;SDS011;1366;47.988;7.856;2022-12-13T14:56:27;24.50;;;15.43;;
2712;SDS011;1366;47.988;7.856;2022-12-13T14:58:55;25.07;;;16.13;;
2712;SDS011;1366;47.988;7.856;2022-12-13T15:01:31;22.47;;;15.30;;
2712;SDS011;1366;47.988;7.856;2022-12-13T15:06:43;21.53;;;14.70;;
2712;SDS011;1366;47.988;7.856;2022-12-13T15:09:10;25.83;;;17.27;;
2712;SDS011;1366;47.988;7.856;2022-12-13T15:11:37;25.20;;;17.27;;
2712;SDS011;1366;47.988;7.856;2022-12-13T15:14:03;20.33;;;13.97;;
2712;SDS011;1366;47.988;7.856;2022-12-13T15:16:30;24.57;;;16.20;;
2712;SDS011;1366;47.988;7.856;2022-12-13T15:19:12;22.67;;;15.83;;
2712;SDS011;1366;47.988;7.856;2022-12-13T15:21:39;26.73;;;16.73;;
2712;SDS011;1366;47.988;7.856;2022-12-13T15:24:05;25.80;;;15.80;;
2712;SDS011;1366;47.988;7.856;2022-12-13T15:26:31;21.97;;;15.70;;
2712;SDS011;1366;47.988;7.856;2022-12-13T15:28:58;26.00;;;16.57;;
2712;SDS011;1366;47.988;7.856;2022-12-13T15:31:25;24.33;;;16.27;;
2712;SDS011;1366;47.988;7.856;2022-12-13T15:33:51;26.40;;;17.10;;
2712;SDS011;1366;47.988;7.856;2022-12-13T15:36:19;23.87;;;15.93;;
2712;SDS011;1366;47.988;7.856;2022-12-13T15:38:49;27.03;;;16.67;;
2712;SDS011;1366;47.988;7.856;2022-12-13T15:41:16;21.13;;;16.20;;
2712;SDS011;1366;47.988;7.856;2022-12-13T15:43:45;23.80;;;16.33;;
2712;SDS011;1366;47.988;7.856;2022-12-13T15:46:12;24.10;;;15.93;;
2712;SDS011;1366;47.988;7.856;2022-12-13T15:48:39;24.13;;;15.93;;
2712;SDS011;1366;47.988;7.856;2022-12-13T15:51:08;22.83;;;16.47;;
2712;SDS011;1366;47.988;7.856;2022-12-13T15:53:35;23.47;;;17.43;;
2712;SDS011;1366;47.988;7.856;2022-12-13T15:56:01;28.33;;;16.93;;
2712;SDS011;1366;47.988;7.856;2022-12-13T15:58:30;25.30;;;16.33;;
2712;SDS011;1366;47.988;7.856;2022-12-13T16:00:56;28.90;;;19.17;;
2712;SDS011;1366;47.988;7.856;2022-12-13T16:03:28;30.00;;;19.13;;
2712;SDS011;1366;47.988;7.856;2022-12-13T16:05:59;27.13;;;18.27;;
2712;SDS011;1366;47.988;7.856;2022-12-13T16:08:29;32.10;;;19.73;;
2712;SDS011;1366;47.988;7.856;2022-12-13T16:10:57;26.23;;;18.20;;
2712;SDS011;1366;47.988;7.856;2022-12-13T16:13:29;26.70;;;17.40;;
2712;SDS011;1366;47.988;7.856;2022-12-13T16:18:41;26.77;;;18.83;;
2712;SDS011;1366;47.988;7.856;2022-12-13T16:21:08;33.73;;;19.43;;
2712;SDS011;1366;47.988;7.856;2022-12-13T16:23:34;37.30;;;21.63;;
2712;SDS011;1366;47.988;7.856;2022-12-13T16:26:00;37.10;;;20.70;;
2712;SDS011;1366;47.988;7.856;2022-12-13T16:28:26;32.30;;;20.20;;
2712;SDS011;1366;47.988;7.856;2022-12-13T16:30:55;32.10;;;20.07;;
2712;SDS011;1366;47.988;7.856;2022-12-13T16:33:23;30.13;;;18.07;;
2712;SDS011;1366;47.988;7.856;2022-12-13T16:35:50;31.20;;;19.37;;
2712;SDS011;1366;47.988;7.856;2022-12-13T16:38:16;25.37;;;17.80;;
2712;SDS011;1366;47.988;7.856;2022-12-13T16:40:43;25.70;;;17.90;;
2712;SDS011;1366;47.988;7.856;2022-12-13T16:43:19;26.87;;;17.73;;
2712;SDS011;1366;47.988;7.856;2022-12-13T16:45:49;25.47;;;16.70;;
2712;SDS011;1366;47.988;7.856;2022-12-13T16:48:15;26.73;;;16.30;;
2712;SDS011;1366;47.988;7.856;2022-12-13T16:53:10;25.30;;;17.10;;
2712;SDS011;1366;47.988;7.856;2022-12-13T16:55:37;27.57;;;17.90;;
2712;SDS011;1366;47.988;7.856;2022-12-13T16:58:04;32.40;;;20.10;;
2712;SDS011;1366;47.988;7.856;2022-12-13T17:00:30;33.20;;;20.27;;
2712;SDS011;1366;47.988;7.856;2022-12-13T17:02:57;23.83;;;18.43;;
2712;SDS011;1366;47.988;7.856;2022-12-13T17:05:23;26.47;;;18.60;;
2712;SDS011;1366;47.988;7.856;2022-12-13T17:07:50;27.97;;;18.03;;
2712;SDS011;1366;47.988;7.856;2022-12-13T17:10:16;32.00;;;18.73;;
2712;SDS011;1366;47.988;7.856;2022-12-13T17:12:43;26.53;;;18.90;;
2712;SDS011;1366;47.988;7.856;2022-12-13T17:15:09;27.30;;;19.20;;
2712;SDS011;1366;47.988;7.856;2022-12-13T17:17:36;29.17;;;19.83;;
2712;SDS011;1366;47.988;7.856;2022-12-13T17:20:03;25.33;;;19.03;;
2712;SDS011;1366;47.988;7.856;2022-12-13T17:22:29;28.77;;;18.80;;
2712;SDS011;1366;47.988;7.856;2022-12-13T17:24:56;32.20;;;18.97;;
2712;SDS011;1366;47.988;7.856;2022-12-13T17:27:22;26.40;;;17.83;;
2712;SDS011;1366;47.988;7.856;2022-12-13T17:29:48;26.03;;;17.23;;
2712;SDS011;1366;47.988;7.856;2022-12-13T17:32:14;24.83;;;17.30;;
2712;SDS011;1366;47.988;7.856;2022-12-13T17:34:40;31.87;;;19.13;;
2712;SDS011;1366;47.988;7.856;2022-12-13T17:37:06;27.10;;;19.40;;
2712;SDS011;1366;47.988;7.856;2022-12-13T17:39:32;32.50;;;20.27;;
2712;SDS011;1366;47.988;7.856;2022-12-13T17:41:58;27.10;;;18.80;;
2712;SDS011;1366;47.988;7.856;2022-12-13T17:44:25;29.67;;;18.70;;
2712;SDS011;1366;47.988;7.856;2022-12-13T17:46:51;32.30;;;18.43;;
2712;SDS011;1366;47.988;7.856;2022-12-13T17:49:17;30.60;;;19.67;;
2712;SDS011;1366;47.988;7.856;2022-12-13T17:51:43;27.37;;;18.27;;
2712;SDS011;1366;47.988;7.856;2022-12-13T17:54:10;31.00;;;19.77;;
2712;SDS011;1366;47.988;7.856;2022-12-13T17:56:36;29.63;;;18.30;;
2712;SDS011;1366;47.988;7.856;2022-12-13T17:59:03;29.60;;;18.23;;
2712;SDS011;1366;47.988;7.856;2022-12-13T18:01:29;26.00;;;18.07;;
2712;SDS011;1366;47.988;7.856;2022-12-13T18:03:55;29.10;;;20.50;;
2712;SDS011;1366;47.988;7.856;2022-12-13T18:06:23;30.00;;;19.17;;
2712;SDS011;1366;47.988;7.856;2022-12-13T18:08:49;23.83;;;16.67;;
2712;SDS011;1366;47.988;7.856;2022-12-13T18:11:15;21.90;;;16.17;;
2712;SDS011;1366;47.988;7.856;2022-12-13T18:13:42;26.53;;;17.50;;
2712;SDS011;1366;47.988;7.856;2022-12-13T18:16:09;23.50;;;17.00;;
2712;SDS011;1366;47.988;7.856;2022-12-13T18:18:35;26.30;;;18.13;;
2712;SDS011;1366;47.988;7.856;2022-12-13T18:21:08;25.97;;;17.50;;
2712;SDS011;1366;47.988;7.856;2022-12-13T18:23:35;26.63;;;16.60;;
2712;SDS011;1366;47.988;7.856;2022-12-13T18:26:02;27.67;;;17.70;;
2712;SDS011;1366;47.988;7.856;2022-12-13T18:28:29;24.03;;;17.63;;
2712;SDS011;1366;47.988;7.856;2022-12-13T18:30:56;28.93;;;16.97;;
2712;SDS011;1366;47.988;7.856;2022-12-13T18:33:22;25.30;;;17.57;;
2712;SDS011;1366;47.988;7.856;2022-12-13T18:35:48;26.40;;;18.57;;
2712;SDS011;1366;47.988;7.856;2022-12-13T18:38:14;29.20;;;18.10;;
2712;SDS011;1366;47.988;7.856;2022-12-13T18:40:40;22.77;;;16.90;;
2712;SDS011;1366;47.988;7.856;2022-12-13T18:43:06;23.70;;;16.50;;
2712;SDS011;1366;47.988;7.856;2022-12-13T18:45:32;24.80;;;17.90;;
2712;SDS011;1366;47.988;7.856;2022-12-13T18:47:58;24.27;;;16.53;;
2712;SDS011;1366;47.988;7.856;2022-12-13T18:50:25;26.40;;;18.07;;
2712;SDS011;1366;47.988;7.856;2022-12-13T18:52:51;25.90;;;17.13;;
2712;SDS011;1366;47.988;7.856;2022-12-13T18:55:17;28.43;;;18.50;;
2712;SDS011;1366;47.988;7.856;2022-12-13T18:57:43;24.10;;;18.07;;
2712;SDS011;1366;47.988;7.856;2022-12-13T19:00:09;26.20;;;18.20;;
2712;SDS011;1366;47.988;7.856;2022-12-13T19:02:36;25.50;;;17.90;;
2712;SDS011;1366;47.988;7.856;2022-12-13T19:05:02;28.40;;;17.97;;
2712;SDS011;1366;47.988;7.856;2022-12-13T19:07:28;22.97;;;17.70;;
2712;SDS011;1366;47.988;7.856;2022-12-13T19:09:54;20.80;;;15.97;;
2712;SDS011;1366;47.988;7.856;2022-12-13T19:12:21;22.43;;;16.03;;
2712;SDS011;1366;47.988;7.856;2022-12-13T19:14:47;25.73;;;17.53;;
2712;SDS011;1366;47.988;7.856;2022-12-13T19:17:13;21.70;;;16.90;;
2712;SDS011;1366;47.988;7.856;2022-12-13T19:19:39;28.43;;;17.90;;
2712;SDS011;1366;47.988;7.856;2022-12-13T19:22:05;24.37;;;17.20;;
2712;SDS011;1366;47.988;7.856;2022-12-13T19:24:31;26.23;;;17.20;;
2712;SDS011;1366;47.988;7.856;2022-12-13T19:26:57;27.33;;;17.57;;
2712;SDS011;1366;47.988;7.856;2022-12-13T19:29:24;22.90;;;16.93;;
2712;SDS011;1366;47.988;7.856;2022-12-13T19:31:50;24.57;;;17.07;;
2712;SDS011;1366;47.988;7.856;2022-12-13T19:34:16;26.60;;;17.63;;
2712;SDS011;1366;47.988;7.856;2022-12-13T19:36:43;26.73;;;19.27;;
2712;SDS011;1366;47.988;7.856;2022-12-13T19:39:10;27.40;;;18.10;;
2712;SDS011;1366;47.988;7.856;2022-12-13T19:41:36;25.63;;;17.30;;
2712;SDS011;1366;47.988;7.856;2022-12-13T19:44:02;28.93;;;18.20;;
2712;SDS011;1366;47.988;7.856;2022-12-13T19:46:29;28.30;;;17.93;;
2712;SDS011;1366;47.988;7.856;2022-12-13T19:48:55;27.90;;;19.23;;
2712;SDS011;1366;47.988;7.856;2022-12-13T19:51:21;25.87;;;17.90;;
2712;SDS011;1366;47.988;7.856;2022-12-13T19:53:48;29.67;;;17.70;;
2712;SDS011;1366;47.988;7.856;2022-12-13T19:56:15;26.23;;;18.40;;
2712;SDS011;1366;47.988;7.856;2022-12-13T19:58:42;26.30;;;17.80;;
2712;SDS011;1366;47.988;7.856;2022-12-13T20:01:08;30.60;;;19.67;;
2712;SDS011;1366;47.988;7.856;2022-12-13T20:03:35;22.20;;;17.93;;
2712;SDS011;1366;47.988;7.856;2022-12-13T20:06:02;25.90;;;17.80;;
2712;SDS011;1366;47.988;7.856;2022-12-13T20:08:29;22.77;;;16.30;;
2712;SDS011;1366;47.988;7.856;2022-12-13T20:10:56;24.37;;;17.50;;
2712;SDS011;1366;47.988;7.856;2022-12-13T20:13:22;28.40;;;19.00;;
2712;SDS011;1366;47.988;7.856;2022-12-13T20:15:48;29.60;;;18.80;;
2712;SDS011;1366;47.988;7.856;2022-12-13T20:18:15;28.47;;;19.47;;
2712;SDS011;1366;47.988;7.856;2022-12-13T20:20:41;27.37;;;18.30;;
2712;SDS011;1366;47.988;7.856;2022-12-13T20:23:07;25.97;;;16.97;;
2712;SDS011;1366;47.988;7.856;2022-12-13T20:25:33;26.70;;;18.70;;
2712;SDS011;1366;47.988;7.856;2022-12-13T20:27:59;24.60;;;19.13;;
2712;SDS011;1366;47.988;7.856;2022-12-13T20:30:25;29.83;;;17.70;;
2712;SDS011;1366;47.988;7.856;2022-12-13T20:32:51;29.50;;;19.17;;
2712;SDS011;1366;47.988;7.856;2022-12-13T20:35:18;29.00;;;18.77;;
2712;SDS011;1366;47.988;7.856;2022-12-13T20:37:44;33.00;;;20.30;;
2712;SDS011;1366;47.988;7.856;2022-12-13T20:40:12;29.57;;;19.30;;
2712;SDS011;1366;47.988;7.856;2022-12-13T20:42:38;30.87;;;21.40;;
2712;SDS011;1366;47.988;7.856;2022-12-13T20:45:04;29.53;;;18.30;;
2712;SDS011;1366;47.988;7.856;2022-12-13T20:47:31;24.87;;;19.27;;
2712;SDS011;1366;47.988;7.856;2022-12-13T20:49:57;28.40;;;19.40;;
2712;SDS011;1366;47.988;7.856;2022-12-13T20:52:23;26.80;;;19.43;;
2712;SDS011;1366;47.988;7.856;2022-12-13T20:54:49;28.50;;;18.77;;
2712;SDS011;1366;47.988;7.856;2022-12-13T20:57:15;30.63;;;19.13;;
2712;SDS011;1366;47.988;7.856;2022-12-13T20:59:41;27.63;;;18.20;;
2712;SDS011;1366;47.988;7.856;2022-12-13T21:02:08;31.80;;;20.77;;
2712;SDS011;1366;47.988;7.856;2022-12-13T21:04:34;27.93;;;19.83;;
2712;SDS011;1366;47.988;7.856;2022-12-13T21:07:02;28.80;;;18.27;;
2712;SDS011;1366;47.988;7.856;2022-12-13T21:09:29;28.30;;;19.13;;
2712;SDS011;1366;47.988;7.856;2022-12-13T21:11:55;30.07;;;21.03;;
2712;SDS011;1366;47.988;7.856;2022-12-13T21:14:28;27.03;;;18.67;;
2712;SDS011;1366;47.988;7.856;2022-12-13T21:16:55;30.30;;;21.07;;
2712;SDS011;1366;47.988;7.856;2022-12-13T21:19:22;30.70;;;19.97;;
2712;SDS011;1366;47.988;7.856;2022-12-13T21:21:48;30.17;;;19.30;;
2712;SDS011;1366;47.988;7.856;2022-12-13T21:24:15;24.33;;;18.03;;
2712;SDS011;1366;47.988;7.856;2022-12-13T21:26:42;29.47;;;19.83;;
2712;SDS011;1366;47.988;7.856;2022-12-13T21:29:09;26.43;;;18.70;;
2712;SDS011;1366;47.988;7.856;2022-12-13T21:31:38;28.83;;;20.33;;
2712;SDS011;1366;47.988;7.856;2022-12-13T21:34:05;27.73;;;19.33;;
2712;SDS011;1366;47.988;7.856;2022-12-13T21:36:32;29.70;;;20.27;;
2712;SDS011;1366;47.988;7.856;2022-12-13T21:38:59;25.73;;;17.80;;
2712;SDS011;1366;47.988;7.856;2022-12-13T21:41:26;30.87;;;19.80;;
2712;SDS011;1366;47.988;7.856;2022-12-13T21:43:52;31.33;;;20.53;;
2712;SDS011;1366;47.988;7.856;2022-12-13T21:46:19;30.33;;;21.40;;
2712;SDS011;1366;47.988;7.856;2022-12-13T21:48:46;30.57;;;19.00;;